首页
METAR-TAF:

METAR-TAF

机场 :

北京首都国际机场

北京, 中华人民共和国

纬度: 39-56N, 经度: 116-17E, 海拔: 55米

当前天气观测

该预报发布于43分钟前的09:30 UTC
风速14节,风向南转西南
温度 35°C
湿度 23%
气压 1003 hPa
能见度10公里或以上
1500米以下无云,无积雨云

METAR: ZBAA 160930Z 20007MPS CAVOK 35/11 Q1003 NOSIG

时间: 18:13 (10:13 UTC)

预报

该预报发布于7小时和12分钟前的03:01 UTC
预报有效从16日的 06点(UTC)到 17日的 06点(UTC)
风速8节,风向
能见度10公里或以上
1500米以下无云,无积雨云

TAF: ZBAA 160301Z 1606/1706 18004MPS CAVOK TX36/1607Z TN20/1621Z

超过4000个机场的气象观测和天气预报(METAR&TAF报告)。

可查询的气象台以黄色和红色小点在地图上表示。

将鼠标移到小点上方,可查看气象台名称。

然后点击查看天气观测和预报。

如需切换地图:点击带黑十字的绿色按钮放大地图;点击带横线的绿色按钮缩小地图;或者点击绿色箭头查看邻近地区的地图。


METAR-TAF: